OPA Logo
 
ASOS:
At:2021.01.25 0355 UTC
Wind:
Viz: 8 mile(s)
Sky: partly cloudy
Temp: 30 F (-1 C)
DewP: 28 F (-2 C)
RH: 92%
Baro: 29.68 in.
ob: KBDN 250355Z AUTO 00000KT 8SM SCT001 SCT033 M01/M02 A2968 RMK AO2

ASOS: KRDM
At:2021.01.25 0404 UTC
Wind:220° @ 4KT
Viz: 5 mile(s)
Sky: overcast
Temp: mist
DewP: 28.9 F (-1.7 C)
RH: 23 F (-5 C):1
Baro: 23 F (-5 C):1
ob: KRDM 250404Z 22004KT 5SM BR FEW001 SCT019 OVC050 M02/M03 A2967 RMK AO2 T10171033
Apache-SSL Logo

Valid HTML 4.01!

Links:

Aviation Calendars:

OPA Calendar

Weather Links:

Bend AWOS (Requires Flash, does not work for me)

Weather.gov Weather from the horses mouth: NOAA

Aviationweather.gov NOAA weather for pilots

Aviation Digital Data Service (ADDS) - Very cool graphics.

National Center for Atmospheric Research (NCAR) - Research Applications Program (RAP) Real Time Weather DataCurrent weather data in detailed graphic format.

Plymouth State University Meteorology DepartmentMake your own weather maps and charts.

Z21 local weather

KOHD local weather

Flight Planning:

Duat.com - FAA legal briefing, login required

Duats.com - FAA legal briefing, login required

Airnav - Airport Info, Fuel Planning

Aeroplaner - Graphical TFRs

Flightprep

Bureau of Land Management - Aviation Office - good graphical TFRs! (Down Oct 2009)

Aviation Toolboxdownload current sectionals and terminal area charts.

I Fly OregonPersonal recommendations on the $100 hamburger.

Weather Cams:

Oregon Department of Transportation/TripCheck

Redmond (RDM)

Eye on Bend

Mt Hood

Mt Shasta

Government Links:

Bend Airport

FAA - Graphical TFRs

FAA Wright Brothers Award

NTSB Searchable Aviation Accident Database

Oregon Department of Aviation (ODA)

ODA public us airports on-line

Bend Airport Aviation Links:

KBDN Online Groupsite/a>

Bend Airport information from Airnav

Cafe 3456

Windward Performance

Balloons Over Bend

Electronics International

Epic Aircraft

Leading Edge Aviation

Precise Flight

Professional Air

Pilot Association Links:

Aircraft Owners and Pilots Association (AOPA)

Oregon Pilots Association (OPA)

Cessna Pilots Association (CPA)

The Central Oregon Ninety-Nines

The Ninety-Nines

Palms To Pines Air Race

Angel Flight West - Oregon Wing

Aviation News:

Avweb - Twice Weekly News and Columns

Landings - Extensive Aviation Links

Planes for Sale:

ASO

Findaircraft

MyPlane

Other:

Ken Couch Cluster Ballooning


Web page by: gem@rellim.com